Time;durP1;ratioP1;P1;durP2;ratioP2;P2;SDS_P1;SDS_P2;PMS_P1;PMS_P2;Temp;Humidity;BMP_temperature;BMP_pressure;BME280_temperature;BME280_humidity;BME280_pressure;Samples;Min_cycle;Max_cycle;Signal;HPM_P1;HPM_P2
2023/10/17 00:00:31;;;;;;;7.07;6.37;;;;;;;7.61;71.68;95599.84;6251410;22;20173;-89
2023/10/17 00:03:10;;;;;;;6.93;6.33;;;;;;;7.61;71.63;95593.91;6252211;22;20156;-89
2023/10/17 00:05:47;;;;;;;7.13;6.43;;;;;;;7.74;71.46;95603.69;6252888;23;20165;-87
2023/10/17 00:08:20;;;;;;;7.60;6.90;;;;;;;7.84;70.98;95589.78;6252424;23;20181;-88
2023/10/17 00:11:08;;;;;;;8.30;6.37;;;;;;;7.93;70.79;95585.44;6252125;23;20203;-88
2023/10/17 00:13:39;;;;;;;7.43;6.73;;;;;;;8.09;70.18;95575.19;6251350;22;20180;-88
2023/10/17 00:16:09;;;;;;;7.17;6.47;;;;;;;8.18;69.99;95563.16;6251707;22;20510;-89
2023/10/17 00:18:40;;;;;;;8.40;6.63;;;;;;;7.87;70.89;95579.22;6252147;22;20169;-87
2023/10/17 00:21:20;;;;;;;7.13;6.37;;;;;;;7.75;71.74;95608.66;6252535;23;20220;-88
2023/10/17 00:23:59;;;;;;;6.60;6.00;;;;;;;7.81;71.37;95608.03;6251628;22;20184;-87
2023/10/17 00:26:32;;;;;;;6.77;6.17;;;;;;;7.91;70.98;95598.41;6251894;23;20468;-88
2023/10/17 00:29:10;;;;;;;6.70;6.10;;;;;;;7.83;71.25;95592.50;6251311;22;20157;-89
2023/10/17 00:31:39;;;;;;;7.30;6.60;;;;;;;7.98;70.54;95589.13;6251732;23;20495;-88
2023/10/17 00:34:15;;;;;;;6.70;6.10;;;;;;;8.13;70.13;95558.50;6250934;23;20252;-87
2023/10/17 00:36:51;;;;;;;7.10;6.40;;;;;;;8.19;69.71;95539.91;6251742;23;20164;-89
2023/10/17 00:39:31;;;;;;;6.90;6.30;;;;;;;8.29;69.23;95519.22;6251828;23;20191;-89
2023/10/17 00:44:44;;;;;;;6.80;6.20;;;;;;;7.94;70.21;95549.41;6246394;23;20176;-88
2023/10/17 00:47:18;;;;;;;7.63;6.50;;;;;;;7.91;70.53;95567.66;6252146;23;20189;-88
2023/10/17 00:49:45;;;;;;;6.87;6.20;;;;;;;7.82;70.88;95575.50;6250921;23;20212;-87
2023/10/17 00:52:25;;;;;;;6.97;6.27;;;;;;;7.97;70.50;95574.72;6251123;23;20177;-89
2023/10/17 00:54:54;;;;;;;7.10;6.43;;;;;;;8.17;69.80;95551.31;6252058;23;20153;-87
2023/10/17 00:57:26;;;;;;;7.17;6.47;;;;;;;8.28;69.29;95535.56;6250378;22;20247;-88
2023/10/17 01:00:22;;;;;;;7.13;6.43;;;;;;;8.22;69.12;95536.25;6251580;23;20180;-87
2023/10/17 01:03:01;;;;;;;7.10;6.50;;;;;;;8.11;69.60;95546.81;6251427;23;20173;-87
2023/10/17 01:05:33;;;;;;;7.77;6.63;;;;;;;8.05;69.97;95555.97;6250474;22;20169;-88
2023/10/17 01:08:01;;;;;;;8.33;7.30;;;;;;;7.91;70.63;95565.09;6250060;23;20184;-88
2023/10/17 01:10:30;;;;;;;9.77;7.17;;;;;;;7.81;71.11;95584.16;6251205;23;20200;-88
2023/10/17 01:13:03;;;;;;;7.17;6.50;;;;;;;7.81;71.16;95587.53;6251135;23;20251;-88
2023/10/17 01:15:37;;;;;;;8.03;6.80;;;;;;;7.72;71.12;95588.47;6251099;23;20165;-88
2023/10/17 01:18:09;;;;;;;7.43;6.73;;;;;;;7.82;70.95;95594.25;6253262;23;20467;-87
2023/10/17 01:20:36;;;;;;;7.73;7.00;;;;;;;7.85;70.89;95585.47;6251619;22;20209;-86
2023/10/17 01:23:24;;;;;;;7.43;6.63;;;;;;;7.78;71.14;95594.72;6251404;23;20177;-89
2023/10/17 01:25:56;;;;;;;7.97;7.10;;;;;;;7.82;71.23;95586.56;6251757;22;20485;-88
2023/10/17 01:28:25;;;;;;;8.40;7.00;;;;;;;7.75;71.12;95592.47;6252147;23;20204;-89
2023/10/17 01:31:00;;;;;;;8.30;7.50;;;;;;;7.82;71.01;95578.06;6250493;23;20204;-88
2023/10/17 01:33:29;;;;;;;8.07;7.27;;;;;;;7.73;71.18;95569.56;6250988;22;20189;-89
2023/10/17 01:36:00;;;;;;;8.40;7.50;;;;;;;7.59;71.49;95568.44;6250583;23;20460;-88
2023/10/17 01:38:28;;;;;;;7.93;7.17;;;;;;;7.58;71.54;95581.41;6250398;22;20157;-87
2023/10/17 01:41:03;;;;;;;7.90;7.10;;;;;;;7.52;72.23;95595.63;6250033;23;20193;-89
2023/10/17 01:43:36;;;;;;;8.30;7.50;;;;;;;7.30;72.99;95608.25;6249673;22;20161;-87
2023/10/17 01:46:13;;;;;;;8.67;7.87;;;;;;;7.21;73.53;95625.34;6250895;23;20161;-88
2023/10/17 01:48:48;;;;;;;9.57;8.43;;;;;;;7.05;74.21;95645.75;6251382;22;20188;-87
2023/10/17 01:51:23;;;;;;;8.57;7.77;;;;;;;7.17;74.23;95644.53;6252213;23;20242;-88
2023/10/17 01:53:52;;;;;;;8.80;7.90;;;;;;;7.03;74.74;95651.03;6250394;23;20160;-87
2023/10/17 01:56:25;;;;;;;8.70;7.90;;;;;;;6.99;74.41;95654.03;6251364;23;20248;-88
2023/10/17 01:58:59;;;;;;;8.37;7.43;;;;;;;7.01;75.18;95660.63;6251298;23;20222;-89
2023/10/17 02:01:29;;;;;;;9.37;8.47;;;;;;;6.91;75.26;95663.28;6249808;23;20192;-87
2023/10/17 02:04:18;;;;;;;9.13;8.23;;;;;;;6.77;76.19;95679.19;6250819;23;20161;-87
2023/10/17 02:06:50;;;;;;;9.50;8.43;;;;;;;6.74;76.52;95679.47;6250583;23;20169;-87
2023/10/17 02:09:24;;;;;;;8.77;7.97;;;;;;;6.71;76.62;95684.91;6250678;23;20418;-87
2023/10/17 02:11:54;;;;;;;9.23;8.33;;;;;;;6.87;76.28;95686.78;6249214;23;20333;-88
2023/10/17 02:14:21;;;;;;;9.20;8.30;;;;;;;7.00;75.38;95656.44;6250797;23;20193;-88
2023/10/17 02:16:48;;;;;;;8.77;7.87;;;;;;;6.92;75.50;95656.41;6250412;22;20172;-89
2023/10/17 02:19:19;;;;;;;8.40;7.60;;;;;;;6.82;75.84;95663.38;6251543;23;20181;-88
2023/10/17 02:21:51;;;;;;;9.80;8.30;;;;;;;6.75;76.10;95673.41;6251291;22;20204;-89
2023/10/17 02:24:20;;;;;;;9.00;8.10;;;;;;;6.74;76.80;95668.44;6251955;23;20472;-88
2023/10/17 02:26:56;;;;;;;9.47;8.60;;;;;;;6.49;77.63;95703.31;6250719;23;20191;-87
2023/10/17 02:29:38;;;;;;;11.47;8.53;;;;;;;6.45;78.00;95707.91;6251977;23;20171;-88
2023/10/17 02:32:18;;;;;;;8.33;7.53;;;;;;;6.54;78.05;95717.22;6251716;23;20192;-89
2023/10/17 02:34:48;;;;;;;9.30;8.40;;;;;;;6.62;77.44;95706.28;6251362;23;20168;-88
2023/10/17 02:37:29;;;;;;;10.00;9.00;;;;;;;6.63;77.79;95707.88;6250869;23;20240;-87
2023/10/17 02:46:52;;;;;;;9.80;8.53;;;;;;;6.73;76.71;95677.09;6112970;23;20190;-86
2023/10/17 02:49:26;;;;;;;9.90;8.60;;;;;;;6.64;77.23;95683.91;6247010;22;20214;-89
2023/10/17 02:51:55;;;;;;;8.83;7.93;;;;;;;6.75;76.51;95670.06;6251306;23;20248;-88
2023/10/17 02:54:27;;;;;;;9.23;8.33;;;;;;;6.85;75.79;95663.09;6251471;23;20200;-86
2023/10/17 02:56:56;;;;;;;9.30;8.40;;;;;;;6.93;75.28;95643.44;6249907;23;20158;-86
2023/10/17 02:59:33;;;;;;;9.17;8.27;;;;;;;6.98;74.44;95621.72;6250630;23;20208;-87
2023/10/17 03:02:11;;;;;;;10.40;8.47;;;;;;;6.99;74.31;95602.84;6251224;22;20195;-88
2023/10/17 03:04:43;;;;;;;9.83;8.83;;;;;;;7.03;73.66;95615.19;6252478;22;20157;-88
2023/10/17 03:07:15;;;;;;;9.67;8.27;;;;;;;6.96;73.50;95603.94;6252813;23;20192;-86
2023/10/17 03:09:44;;;;;;;8.83;8.00;;;;;;;6.82;72.93;95576.38;6253036;23;20153;-87
2023/10/17 03:12:19;;;;;;;8.90;8.00;;;;;;;6.85;73.34;95576.09;6253572;23;20196;-87
2023/10/17 03:17:31;;;;;;;8.37;7.53;;;;;;;6.94;72.79;95564.91;6253132;23;20160;-86
2023/10/17 03:19:57;;;;;;;8.63;7.50;;;;;;;7.00;72.11;95543.81;6252105;23;20185;-87
2023/10/17 03:22:27;;;;;;;9.27;8.37;;;;;;;6.99;72.02;95538.84;6251750;23;20184;-88
2023/10/17 03:25:01;;;;;;;8.60;7.80;;;;;;;7.03;71.99;95548.63;6250627;23;20177;-87
2023/10/17 03:27:36;;;;;;;9.37;8.43;;;;;;;7.05;71.84;95538.25;6251066;23;20231;-86
2023/10/17 03:30:05;;;;;;;8.90;8.00;;;;;;;7.06;71.36;95515.06;6251205;22;20184;-88
2023/10/17 03:32:38;;;;;;;8.70;7.80;;;;;;;7.12;71.09;95513.63;6251335;23;20817;-86
2023/10/17 03:35:20;;;;;;;8.87;7.97;;;;;;;7.15;70.72;95508.16;6251752;22;20593;-87
2023/10/17 03:37:54;;;;;;;8.47;7.67;;;;;;;7.12;70.53;95500.84;6252930;23;20167;-88
2023/10/17 03:40:30;;;;;;;8.03;7.23;;;;;;;7.08;70.50;95505.47;6251651;23;20193;-87
2023/10/17 03:43:01;;;;;;;8.97;8.17;;;;;;;6.89;70.64;95503.97;6252839;23;20199;-88
2023/10/17 03:45:41;;;;;;;8.97;8.07;;;;;;;6.78;70.94;95509.34;6252384;23;20169;-87
2023/10/17 03:48:15;;;;;;;8.33;7.53;;;;;;;6.77;71.08;95517.97;6252625;22;20177;-86
2023/10/17 03:50:58;;;;;;;9.30;8.07;;;;;;;6.77;71.07;95517.97;6253307;23;20339;-87
2023/10/17 03:53:36;;;;;;;10.43;7.73;;;;;;;6.88;70.58;95515.16;6252496;22;20220;-86
2023/10/17 03:58:57;;;;;;;8.30;7.50;;;;;;;6.96;69.57;95468.28;6250418;22;20184;-86
2023/10/17 04:01:24;;;;;;;8.67;7.63;;;;;;;6.90;70.08;95464.63;6251637;23;20196;-88
2023/10/17 04:04:00;;;;;;;8.43;7.53;;;;;;;6.78;69.79;95462.50;6252085;23;20180;-86
2023/10/17 04:06:39;;;;;;;9.47;8.40;;;;;;;6.69;69.91;95463.44;6251928;23;20474;-88
2023/10/17 04:09:25;;;;;;;9.80;7.80;;;;;;;6.70;70.11;95460.75;6253964;23;20184;-88
2023/10/17 04:11:53;;;;;;;8.87;7.77;;;;;;;6.57;70.59;95480.81;6253408;23;20196;-87
2023/10/17 04:14:33;;;;;;;9.17;8.03;;;;;;;6.52;71.44;95522.22;6252522;22;20233;-86
2023/10/17 04:17:03;;;;;;;9.30;8.20;;;;;;;6.54;71.97;95545.88;6253158;23;20187;-87
2023/10/17 04:19:32;;;;;;;9.90;8.83;;;;;;;6.59;72.65;95560.75;6252287;23;20187;-86
2023/10/17 04:22:07;;;;;;;11.03;9.40;;;;;;;6.49;73.36;95583.09;6253304;23;20254;-86
2023/10/17 04:24:35;;;;;;;12.87;10.27;;;;;;;6.60;73.13;95605.84;6252832;22;20184;-87
2023/10/17 04:27:19;;;;;;;13.27;10.80;;;;;;;6.44;74.57;95642.38;6253120;23;20177;-86
2023/10/17 04:29:50;;;;;;;12.57;10.30;;;;;;;6.50;75.62;95664.78;6250331;23;20193;-88
2023/10/17 04:32:17;;;;;;;14.00;10.43;;;;;;;6.52;75.69;95655.22;6252068;23;20165;-86
2023/10/17 04:34:52;;;;;;;15.70;10.90;;;;;;;6.54;75.32;95658.41;6251724;23;20176;-86
2023/10/17 04:37:24;;;;;;;12.10;10.13;;;;;;;6.49;75.94;95682.84;6251249;23;20180;-86
2023/10/17 04:39:57;;;;;;;84.67;61.40;;;;;;;6.38;76.72;95701.75;6253357;23;20157;-86
2023/10/17 04:42:47;;;;;;;17.23;14.13;;;;;;;6.41;76.83;95711.72;6253357;22;20160;-86
2023/10/17 04:45:13;;;;;;;14.97;12.33;;;;;;;6.47;76.85;95707.75;6249866;23;20693;-86
2023/10/17 04:48:10;;;;;;;12.97;11.40;;;;;;;6.52;76.96;95715.81;6248888;23;20272;-87
2023/10/17 04:50:45;;;;;;;14.27;11.43;;;;;;;6.42;77.80;95735.53;6251242;23;20707;-87
2023/10/17 04:53:19;;;;;;;14.43;11.67;;;;;;;6.43;78.08;95740.50;6249928;22;20230;-86
2023/10/17 04:56:09;;;;;;;15.80;12.57;;;;;;;6.26;78.83;95750.72;6249645;23;20616;-86
2023/10/17 04:58:47;;;;;;;15.47;12.23;;;;;;;6.10;80.78;95779.50;6250964;23;20163;-86
2023/10/17 05:03:59;;;;;;;18.13;13.50;;;;;;;6.13;81.99;95792.00;6251922;22;20176;-87
2023/10/17 05:07:06;;;;;;;16.60;13.50;;;;;;;6.11;82.38;95791.31;6249974;23;20183;-86
2023/10/17 06:16:49;;;;;;;16.17;12.80;;;;;;;6.05;83.50;95818.25;6250269;23;20256;-86
2023/10/17 06:18:26;;;;;;;14.97;12.50;;;;;;;6.57;83.76;95842.28;6246722;23;20180;-86
2023/10/17 06:21:16;;;;;;;15.80;12.83;;;;;;;6.65;83.18;95851.81;6246822;23;20244;-87
2023/10/17 06:32:15;;;;;;;17.77;13.13;;;;;;;6.70;83.05;95857.31;6245089;23;20223;-86
2023/10/17 06:34:48;;;;;;;14.17;11.97;;;;;;;6.66;83.29;95863.66;6242801;23;20161;-85
2023/10/17 06:37:20;;;;;;;14.70;12.07;;;;;;;6.68;82.65;95866.88;6242912;22;20185;-86
2023/10/17 06:39:49;;;;;;;14.00;12.27;;;;;;;6.75;82.40;95862.75;6249888;22;20157;-88
2023/10/17 06:42:18;;;;;;;16.07;11.90;;;;;;;6.83;82.15;95855.16;6250085;23;20232;-88
2023/10/17 06:44:52;;;;;;;15.80;13.00;;;;;;;6.86;81.54;95851.50;6250383;23;20507;-86
2023/10/17 06:47:21;;;;;;;17.17;12.53;;;;;;;6.85;82.20;95855.03;6252519;23;20255;-87
2023/10/17 06:50:16;;;;;;;14.77;12.70;;;;;;;6.83;81.89;95854.38;6251585;23;20196;-86
2023/10/17 06:52:54;;;;;;;17.13;13.73;;;;;;;6.83;81.86;95855.16;6250388;22;20184;-88
2023/10/17 06:55:22;;;;;;;17.77;13.20;;;;;;;6.77;82.34;95868.53;6250837;23;20632;-87
2023/10/17 06:57:50;;;;;;;15.33;13.07;;;;;;;6.89;82.12;95857.16;6249458;23;20952;-89
2023/10/17 07:00:24;;;;;;;14.77;12.03;;;;;;;6.92;81.88;95850.94;6250040;23;20197;-86
2023/10/17 07:02:56;;;;;;;14.50;12.63;;;;;;;6.94;81.63;95851.56;6250325;23;20168;-88
2023/10/17 07:05:26;;;;;;;14.77;12.40;;;;;;;6.99;81.72;95857.06;6249015;23;20824;-88
2023/10/17 07:07:53;;;;;;;16.60;12.23;;;;;;;7.06;80.94;95839.38;6248864;23;20176;-88
2023/10/17 07:10:37;;;;;;;15.40;12.13;;;;;;;7.10;80.69;95825.31;6249410;23;20193;-87
2023/10/17 07:13:41;;;;;;;14.63;12.63;;;;;;;7.06;80.21;95809.44;6249517;23;20169;-86
2023/10/17 07:16:12;;;;;;;19.00;12.40;;;;;;;7.01;80.82;95816.75;6248050;23;20511;-86
2023/10/17 07:18:45;;;;;;;13.80;11.60;;;;;;;7.05;80.64;95818.06;6245341;23;20157;-87
2023/10/17 07:21:15;;;;;;;19.37;12.13;;;;;;;7.10;80.45;95805.63;6247025;23;20219;-87
2023/10/17 07:23:42;;;;;;;16.33;12.23;;;;;;;7.11;80.42;95796.19;6247433;23;20172;-87
2023/10/17 07:26:17;;;;;;;16.60;12.00;;;;;;;7.17;80.12;95798.94;6247382;23;20215;-86
2023/10/17 07:28:44;;;;;;;13.60;12.17;;;;;;;7.06;80.84;95788.97;6246929;23;20254;-86
2023/10/17 07:31:12;;;;;;;13.87;11.43;;;;;;;6.88;81.54;95804.34;6247605;23;20200;-87
2023/10/17 07:33:39;;;;;;;15.13;12.10;;;;;;;6.76;82.60;95828.53;6249509;23;20222;-86
2023/10/17 07:36:13;;;;;;;14.47;12.63;;;;;;;6.76;83.72;95841.34;6246240;22;20536;-86
2023/10/17 07:38:41;;;;;;;13.43;11.90;;;;;;;6.89;83.33;95846.09;6245364;22;20161;-87
2023/10/17 07:41:12;;;;;;;14.10;11.70;;;;;;;6.90;83.61;95845.97;6245477;23;20383;-86
2023/10/17 07:43:43;;;;;;;13.07;11.67;;;;;;;6.84;83.54;95850.84;6245039;23;20172;-86
2023/10/17 07:46:18;;;;;;;13.87;11.87;;;;;;;6.85;83.85;95852.47;6245114;23;20496;-86
2023/10/17 07:48:48;;;;;;;13.07;11.27;;;;;;;7.03;83.05;95845.56;6244539;22;20195;-85
2023/10/17 07:51:16;;;;;;;11.50;10.00;;;;;;;7.12;82.07;95820.84;6245142;23;20683;-86
2023/10/17 07:53:45;;;;;;;11.07;9.87;;;;;;;7.23;81.19;95803.47;6246115;23;20290;-87
2023/10/17 07:56:20;;;;;;;11.87;10.23;;;;;;;7.32;80.13;95778.72;6248618;22;20177;-86
2023/10/17 07:58:47;;;;;;;12.00;10.70;;;;;;;7.43;79.66;95775.91;6247356;23;20157;-86
2023/10/17 08:01:30;;;;;;;11.77;10.07;;;;;;;7.45;79.78;95780.88;6247185;23;20201;-86
2023/10/17 08:03:57;;;;;;;11.97;10.23;;;;;;;7.49;79.68;95780.44;6246088;22;20184;-86
2023/10/17 08:06:29;;;;;;;13.03;10.57;;;;;;;7.52;79.06;95774.16;6247051;23;20177;-86
2023/10/17 08:08:58;;;;;;;11.60;10.17;;;;;;;7.59;78.28;95757.25;6247402;23;20664;-86
2023/10/17 08:11:31;;;;;;;11.50;10.30;;;;;;;7.65;78.18;95737.91;6248740;23;20246;-86
2023/10/17 08:14:06;;;;;;;13.27;10.40;;;;;;;7.70;77.95;95751.06;6247404;22;20196;-89
2023/10/17 08:16:39;;;;;;;11.83;10.00;;;;;;;7.69;78.22;95754.56;6246424;23;20161;-88
2023/10/17 08:19:14;;;;;;;11.97;10.00;;;;;;;7.71;78.39;95763.69;6246601;23;20181;-85
2023/10/17 08:21:49;;;;;;;12.83;10.33;;;;;;;7.72;78.22;95749.09;6245719;23;20660;-87
2023/10/17 08:24:15;;;;;;;12.93;10.90;;;;;;;7.78;78.04;95753.63;6247749;22;20164;-88
2023/10/17 08:26:43;;;;;;;17.13;10.37;;;;;;;7.83;77.49;95746.28;6247176;23;20204;-86
2023/10/17 08:29:10;;;;;;;17.90;15.37;;;;;;;7.90;77.27;95731.88;6246961;23;20268;-85
2023/10/17 08:31:44;;;;;;;15.53;12.73;;;;;;;8.01;76.94;95730.78;6245580;23;20196;-85
2023/10/17 08:34:12;;;;;;;15.13;11.17;;;;;;;8.20;77.06;95738.19;6246438;23;20166;-87
2023/10/17 08:39:39;;;;;;;10.43;9.43;;;;;;;8.34;75.25;95690.63;6241406;23;20169;-86
2023/10/17 08:42:05;;;;;;;10.33;9.23;;;;;;;8.23;75.19;95689.16;6248455;23;20248;-87
2023/10/17 08:44:39;;;;;;;10.33;9.33;;;;;;;8.22;75.67;95696.06;6248047;22;20173;-86
2023/10/17 08:47:07;;;;;;;10.37;9.23;;;;;;;8.40;74.94;95698.50;6247879;23;20161;-86
2023/10/17 08:49:34;;;;;;;9.87;8.93;;;;;;;8.43;74.56;95684.56;6246958;23;20197;-87
2023/10/17 08:52:01;;;;;;;10.33;9.37;;;;;;;8.52;74.09;95670.75;6248394;23;20193;-86
2023/10/17 08:54:28;;;;;;;10.37;9.30;;;;;;;8.56;74.12;95662.56;6248235;23;20176;-87
2023/10/17 08:56:59;;;;;;;11.37;10.17;;;;;;;8.63;74.24;95666.09;6248205;23;20196;-86
2023/10/17 08:59:51;;;;;;;9.67;8.67;;;;;;;8.76;74.41;95672.47;6247505;23;20157;-86
2023/10/17 09:02:28;;;;;;;10.23;9.10;;;;;;;8.88;73.84;95658.34;6246907;23;20193;-87
2023/10/17 09:05:00;;;;;;;10.00;9.00;;;;;;;8.98;73.24;95628.94;6245995;23;20608;-86
2023/10/17 09:07:32;;;;;;;9.63;8.73;;;;;;;9.23;72.51;95616.03;6247244;22;20180;-88
2023/10/17 09:10:03;;;;;;;10.83;9.83;;;;;;;9.22;72.17;95594.69;6245817;23;20227;-86
2023/10/17 09:12:36;;;;;;;11.13;9.90;;;;;;;9.47;72.54;95631.31;6246831;22;20203;-87
2023/10/17 09:15:03;;;;;;;11.17;9.57;;;;;;;9.77;71.63;95605.78;6246350;23;20192;-87
2023/10/17 09:17:32;;;;;;;11.27;10.07;;;;;;;9.92;70.68;95560.34;6247641;23;20183;-87
2023/10/17 09:20:06;;;;;;;11.20;10.00;;;;;;;10.08;69.60;95531.91;6247555;22;20212;-87
2023/10/17 09:22:38;;;;;;;10.97;9.87;;;;;;;10.12;69.66;95520.31;6247411;23;20865;-86
2023/10/17 09:25:15;;;;;;;10.63;9.53;;;;;;;10.30;69.27;95504.56;6246264;23;20636;-89
2023/10/17 09:27:44;;;;;;;11.83;10.07;;;;;;;10.48;68.39;95471.53;6246742;23;20243;-87
2023/10/17 09:30:12;;;;;;;10.97;9.87;;;;;;;10.46;67.93;95450.34;6245966;22;20200;-87
2023/10/17 09:32:41;;;;;;;10.93;9.17;;;;;;;10.45;67.75;95440.22;6247059;23;20173;-87
2023/10/17 09:35:13;;;;;;;10.27;9.27;;;;;;;10.29;67.35;95415.47;6244987;23;20177;-86
2023/10/17 09:37:41;;;;;;;10.47;9.47;;;;;;;10.15;67.89;95440.19;6244720;23;20164;-86
2023/10/17 09:40:12;;;;;;;11.67;9.80;;;;;;;10.22;68.15;95448.81;6246147;23;20547;-86
2023/10/17 09:42:40;;;;;;;9.93;8.93;;;;;;;10.26;67.57;95424.34;6244881;23;20161;-86
2023/10/17 09:45:09;;;;;;;11.77;9.50;;;;;;;10.28;67.51;95413.88;6244869;22;20177;-87
2023/10/17 09:47:45;;;;;;;11.37;9.40;;;;;;;10.33;68.49;95461.25;6245176;22;20173;-87
2023/10/17 09:50:13;;;;;;;11.93;10.63;;;;;;;10.34;69.14;95501.47;6244331;22;20184;-86
2023/10/17 09:52:41;;;;;;;11.20;10.10;;;;;;;10.51;68.73;95493.56;6245218;23;20564;-86
2023/10/17 09:55:13;;;;;;;11.57;9.93;;;;;;;10.50;68.13;95455.94;6244909;23;20670;-86
2023/10/17 09:57:44;;;;;;;11.13;10.03;;;;;;;10.51;67.16;95434.34;6214256;23;20160;-86
2023/10/17 10:00:25;;;;;;;11.67;10.47;;;;;;;10.25;67.26;95424.50;6213252;23;20196;-86
2023/10/17 10:02:54;;;;;;;10.80;9.70;;;;;;;10.20;67.63;95443.06;6213818;23;20496;-86
2023/10/17 10:05:21;;;;;;;11.13;10.10;;;;;;;9.98;68.28;95455.00;6214360;23;20200;-86
2023/10/17 10:07:48;;;;;;;10.80;9.70;;;;;;;10.07;68.42;95466.00;6214751;23;20174;-87
2023/10/17 10:18:02;;;;;;;;;;;;;;;;;;;;;
2023/10/17 10:30:58;;;;;;;;;;;;;;;;;;;;;
2023/10/17 10:39:37;;;;;;;9.83;8.83;;;;;;;11.31;64.58;95275.22;6206061;23;20170;-88
2023/10/17 10:58:26;;;;;;;9.97;8.60;;;;;;;10.78;65.00;95268.06;5993731;23;20906;-87
2023/10/17 11:01:11;;;;;;;9.80;8.40;;;;;;;10.80;65.29;95277.19;6085766;23;20354;-87
2023/10/17 11:06:49;;;;;;;10.23;9.23;;;;;;;11.21;65.20;95289.41;6116529;23;20166;-89
2023/10/17 11:09:52;;;;;;;10.03;9.03;;;;;;;11.20;64.48;95254.31;6214990;23;20244;-87
2023/10/17 11:12:22;;;;;;;10.03;9.03;;;;;;;11.08;64.14;95221.34;6213605;23;20190;-88
2023/10/17 11:15:26;;;;;;;10.13;9.13;;;;;;;11.29;65.04;95266.91;6216371;23;20178;-87
2023/10/17 11:18:28;;;;;;;11.00;9.67;;;;;;;11.48;64.76;95260.25;6215404;23;20178;-89
2023/10/17 11:24:47;;;;;;;10.97;9.67;;;;;;;11.54;64.10;95241.47;6201985;23;20173;-89
2023/10/17 11:37:11;;;;;;;9.07;8.23;;;;;;;11.56;63.93;95231.72;6203592;23;20453;-89
2023/10/17 11:46:55;;;;;;;9.23;8.33;;;;;;;11.51;64.33;95241.84;6068834;23;20181;-88
2023/10/17 11:50:28;;;;;;;11.73;8.67;;;;;;;11.40;64.26;95229.47;6152760;23;20199;-88
2023/10/17 12:00:22;;;;;;;9.17;7.70;;;;;;;11.22;64.10;95236.91;5954853;24;20178;-88
2023/10/17 12:07:11;;;;;;;8.87;7.97;;;;;;;11.26;64.17;95238.13;5998881;23;20301;-88
2023/10/17 12:10:46;;;;;;;;;;;;;;;;;;;;;
2023/10/17 12:17:27;;;;;;;8.83;7.67;;;;;;;11.22;65.47;95278.13;6212583;23;20185;-89
2023/10/17 12:20:00;;;;;;;8.07;7.27;;;;;;;11.37;65.31;95283.97;6124534;23;20200;-89
2023/10/17 12:23:18;;;;;;;8.23;7.43;;;;;;;11.33;64.74;95254.44;6213574;23;20721;-88
2023/10/17 12:29:27;;;;;;;10.37;8.10;;;;;;;11.52;65.04;95301.94;6026850;23;20185;-88
2023/10/17 12:32:43;;;;;;;8.83;7.90;;;;;;;11.41;64.69;95265.38;6034139;23;20202;-89
2023/10/17 12:45:41;;;;;;;10.20;9.10;;;;;;;11.21;65.74;95297.94;6161528;23;20200;-89
2023/10/17 12:52:05;;;;;;;;;;;;;;;;;;;;;
2023/10/17 12:55:00;;;;;;;9.53;8.47;;;;;;;11.07;66.64;95325.41;6216501;23;20656;-88
2023/10/17 12:57:27;;;;;;;10.13;8.47;;;;;;;11.14;66.92;95335.78;6216928;23;20248;-88
2023/10/17 13:07:01;;;;;;;9.67;8.73;;;;;;;11.16;67.63;95374.22;6156614;23;20177;-88
2023/10/17 13:10:09;;;;;;;9.63;8.60;;;;;;;11.16;67.76;95369.84;6213362;23;20154;-88
2023/10/17 13:12:48;;;;;;;9.40;8.47;;;;;;;11.24;67.42;95369.72;6212054;23;20564;-88
2023/10/17 13:16:15;;;;;;;10.90;9.07;;;;;;;11.26;67.20;95372.13;6211457;23;20236;-88
2023/10/17 13:28:16;;;;;;;10.17;9.00;;;;;;;11.18;68.10;95393.66;6211341;23;20740;-88
2023/10/17 13:31:01;;;;;;;10.10;9.07;;;;;;;11.12;68.84;95409.88;6208635;23;20517;-87
2023/10/17 13:33:34;;;;;;;10.23;8.90;;;;;;;10.99;69.15;95417.44;6213814;23;20160;-87
2023/10/17 13:36:01;;;;;;;10.30;9.20;;;;;;;11.01;69.70;95438.69;6211127;23;20212;-88
2023/10/17 13:38:29;;;;;;;11.53;9.33;;;;;;;11.10;69.28;95442.75;6206629;23;20276;-88
2023/10/17 13:41:15;;;;;;;10.73;8.73;;;;;;;11.15;69.79;95453.31;6214250;23;20197;-89
2023/10/17 13:43:43;;;;;;;10.57;9.50;;;;;;;11.19;69.38;95446.00;6212503;23;20173;-88
2023/10/17 13:46:32;;;;;;;10.00;9.07;;;;;;;11.20;69.25;95421.81;6213643;23;20176;-88
2023/10/17 13:48:59;;;;;;;9.57;8.63;;;;;;;11.21;69.09;95419.06;6213416;23;20255;-88
2023/10/17 13:51:34;;;;;;;11.30;8.90;;;;;;;11.12;69.41;95434.84;6213239;23;20204;-87
2023/10/17 13:54:02;;;;;;;10.03;8.80;;;;;;;11.18;69.40;95429.72;6214293;23;20605;-89
2023/10/17 13:56:35;;;;;;;10.13;9.13;;;;;;;11.03;69.36;95431.56;6214065;23;20174;-88
2023/10/17 13:59:14;;;;;;;10.20;9.17;;;;;;;11.01;69.99;95449.78;6216238;23;20528;-90
2023/10/17 14:02:01;;;;;;;11.07;9.10;;;;;;;10.86;70.38;95455.97;6217591;23;20193;-88
2023/10/17 14:04:58;;;;;;;9.60;8.63;;;;;;;10.85;70.76;95456.94;6217067;23;20180;-88
2023/10/17 14:08:05;;;;;;;10.83;9.73;;;;;;;10.91;70.84;95469.09;6221507;23;20165;-88
2023/10/17 14:10:43;;;;;;;10.03;8.87;;;;;;;11.04;70.56;95461.50;6128423;23;20207;-88
2023/10/17 14:13:59;;;;;;;;;;;;;;;;;;;;;
2023/10/17 14:19:40;;;;;;;9.97;8.97;;;;;;;10.96;70.98;95452.13;6191227;23;20174;-88
2023/10/17 14:29:07;;;;;;;9.40;8.40;;;;;;;11.03;71.42;95452.97;6217590;23;20161;-89
2023/10/17 14:35:04;;;;;;;9.53;8.53;;;;;;;11.17;70.98;95442.78;6161275;23;20170;-88
2023/10/17 14:37:49;;;;;;;9.93;8.63;;;;;;;11.13;70.75;95439.81;6212695;23;20161;-87
2023/10/17 14:40:22;;;;;;;9.23;8.20;;;;;;;11.06;72.47;95478.38;6211801;23;20714;-88
2023/10/17 14:46:28;;;;;;;;;;;;;;;;;;;;;
2023/10/17 14:49:08;;;;;;;9.27;8.30;;;;;;;10.97;71.53;95473.50;6211086;23;20184;-88
2023/10/17 14:58:21;;;;;;;;;;;;;;;;;;;;;
2023/10/17 15:01:13;;;;;;;9.40;8.10;;;;;;;10.91;72.89;95508.53;6212617;23;20297;-88
2023/10/17 15:11:23;;;;;;;9.50;8.50;;;;;;;10.88;73.09;95485.72;5977555;23;20258;-89
2023/10/17 15:14:10;;;;;;;11.10;8.73;;;;;;;10.76;73.97;95500.03;6037563;23;20238;-88
2023/10/17 15:17:25;;;;;;;7.83;7.13;;;;;;;10.66;74.13;95515.75;6150313;23;20175;-88
2023/10/17 15:19:54;;;;;;;7.00;5.87;;;;;;;10.84;81.81;95705.16;6149245;23;20529;-89
2023/10/17 15:22:55;;;;;;;8.63;7.20;;;;;;;11.04;81.86;95673.56;6201673;23;20197;-88
2023/10/17 15:29:11;;;;;;;9.93;8.43;;;;;;;11.06;72.80;95436.38;6210735;23;20178;-87
2023/10/17 16:07:46;;;;;;;7.43;6.23;;;;;;;10.40;74.85;95492.22;5879747;23;20182;-87
2023/10/17 16:10:47;;;;;;;8.93;6.43;;;;;;;10.49;74.28;95470.56;6007912;23;20213;-88
2023/10/17 16:17:03;;;;;;;7.97;6.13;;;;;;;10.41;75.00;95485.28;6133861;23;20184;-88
2023/10/17 16:20:08;;;;;;;;;;;;;;;;;;;;;
2023/10/17 16:23:21;;;;;;;;;;;;;;;;;;;;;
2023/10/17 16:29:24;;;;;;;8.73;6.93;;;;;;;10.19;76.40;95536.69;6166347;23;20239;-89
2023/10/17 16:32:02;;;;;;;9.43;7.30;;;;;;;10.21;76.82;95555.28;6199835;23;20255;-87
2023/10/17 16:55:32;;;;;;;8.80;7.10;;;;;;;10.56;74.62;95550.47;6121156;23;20710;-88
2023/10/17 17:01:57;;;;;;;8.20;7.33;;;;;;;10.45;75.62;95569.72;5813248;24;20276;-87
2023/10/17 17:13:59;;;;;;;;;;;;;;;;;;;;;
2023/10/17 17:16:54;;;;;;;10.23;8.43;;;;;;;10.28;77.12;95605.09;6184519;23;20245;-88
2023/10/17 17:22:18;;;;;;;10.90;9.90;;;;;;;10.17;78.66;95643.28;6185240;23;20565;-88
2023/10/17 17:25:03;;;;;;;;;;;;;;;;;;;;;
2023/10/17 17:31:29;;;;;;;8.50;7.03;;;;;;;9.92;80.59;95670.94;6027925;23;20257;-88
2023/10/17 17:44:41;;;;;;;8.87;7.97;;;;;;;10.04;79.40;95636.13;5980249;23;20220;-88
2023/10/17 17:50:35;;;;;;;11.00;7.50;;;;;;;10.03;78.67;95611.38;6163867;23;20177;-89
2023/10/17 17:53:18;;;;;;;9.77;7.20;;;;;;;9.99;78.42;95610.94;6187357;23;20513;-90
2023/10/17 17:56:08;;;;;;;11.60;7.80;;;;;;;10.03;78.22;95601.06;6187031;23;20174;-88
2023/10/17 17:59:12;;;;;;;11.53;9.20;;;;;;;9.93;78.57;95609.03;6187442;23;20174;-88
2023/10/17 18:05:36;;;;;;;8.80;7.90;;;;;;;9.84;78.81;95615.19;6209569;23;20177;-88
2023/10/17 18:16:39;;;;;;;;;;;;;;;;;;;;;
2023/10/17 19:38:02;;;;;;;;;;;;;;;;;;;;;
2023/10/17 19:41:18;;;;;;;10.63;9.00;;;;;;;8.54;83.50;95691.91;6189470;23;20177;-88
2023/10/17 19:44:25;;;;;;;11.17;9.07;;;;;;;8.44;84.25;95699.78;6216167;23;20173;-88
2023/10/17 19:46:58;;;;;;;10.23;9.20;;;;;;;8.31;85.32;95717.38;6163522;23;20207;-88